createdAt,value
2023-05-16T00:00:21.392Z,8.14
2023-05-16T00:02:48.762Z,8.04
2023-05-16T00:05:15.875Z,8.07
2023-05-16T00:07:44.852Z,8.05
2023-05-16T00:10:12.492Z,8.05
2023-05-16T00:12:40.481Z,8.02
2023-05-16T00:15:12.838Z,8.06
2023-05-16T00:17:40.724Z,7.91
2023-05-16T00:20:09.073Z,7.85
2023-05-16T00:22:36.131Z,7.88
2023-05-16T00:25:03.700Z,8.01
2023-05-16T00:27:30.710Z,7.96
2023-05-16T00:29:57.503Z,7.96
2023-05-16T00:32:24.407Z,7.95
2023-05-16T00:34:51.309Z,7.92
2023-05-16T00:37:18.158Z,7.89
2023-05-16T00:39:44.981Z,7.96
2023-05-16T00:42:11.820Z,7.99
2023-05-16T00:44:39.487Z,7.92
2023-05-16T00:47:06.688Z,7.92
2023-05-16T00:49:33.732Z,7.98
2023-05-16T00:52:01.248Z,7.92
2023-05-16T00:54:29.627Z,8.01
2023-05-16T00:56:57.762Z,7.96
2023-05-16T00:59:25.606Z,7.97
2023-05-16T01:01:53.403Z,7.99
2023-05-16T01:04:21.072Z,7.99
2023-05-16T01:06:47.950Z,7.93
2023-05-16T01:09:15.081Z,7.99
2023-05-16T01:12:04.834Z,7.95
2023-05-16T01:15:12.928Z,8.00
2023-05-16T01:18:08.971Z,8.02
2023-05-16T01:21:01.306Z,8.13
2023-05-16T01:24:03.349Z,8.23
2023-05-16T01:26:30.803Z,8.30
2023-05-16T01:28:58.048Z,8.36
2023-05-16T01:31:24.987Z,8.41
2023-05-16T01:33:52.113Z,8.35
2023-05-16T01:36:43.300Z,8.27
2023-05-16T01:39:38.978Z,8.16
2023-05-16T01:42:08.507Z,8.14
2023-05-16T01:44:46.496Z,8.10
2023-05-16T01:47:15.382Z,8.07
2023-05-16T01:50:20.496Z,8.17
2023-05-16T01:52:57.423Z,8.09
2023-05-16T01:55:46.836Z,8.17
2023-05-16T01:58:21.798Z,8.27
2023-05-16T02:00:48.777Z,8.20
2023-05-16T02:03:15.909Z,8.24
2023-05-16T02:05:43.230Z,8.24
2023-05-16T02:08:10.214Z,8.28
2023-05-16T02:10:37.055Z,8.32
2023-05-16T02:13:03.968Z,8.28
2023-05-16T02:15:30.775Z,8.29
2023-05-16T02:17:58.825Z,8.22
2023-05-16T02:20:26.030Z,8.31
2023-05-16T02:22:52.916Z,8.27
2023-05-16T02:25:19.792Z,8.28
2023-05-16T02:27:46.631Z,8.24
2023-05-16T02:30:13.965Z,8.30
2023-05-16T02:32:41.395Z,8.33
2023-05-16T02:35:08.529Z,8.31
2023-05-16T02:37:35.606Z,8.31
2023-05-16T02:40:05.820Z,8.22
2023-05-16T02:42:32.846Z,8.27
2023-05-16T02:44:59.820Z,8.28
2023-05-16T02:47:26.922Z,8.42
2023-05-16T02:49:53.858Z,8.48
2023-05-16T02:52:20.696Z,8.48
2023-05-16T02:54:59.886Z,8.52
2023-05-16T02:57:34.704Z,8.45
2023-05-16T03:00:01.630Z,8.44
2023-05-16T03:02:28.607Z,8.37
2023-05-16T03:04:55.639Z,8.30
2023-05-16T03:07:22.459Z,8.21
2023-05-16T03:09:49.281Z,8.16
2023-05-16T03:12:16.083Z,8.08
2023-05-16T03:14:42.933Z,8.04
2023-05-16T03:17:09.771Z,8.02
2023-05-16T03:19:36.612Z,8.01
2023-05-16T03:22:04.227Z,8.02
2023-05-16T03:24:31.445Z,8.04
2023-05-16T03:27:00.104Z,7.99
2023-05-16T03:29:27.318Z,8.00
2023-05-16T03:31:54.664Z,7.93
2023-05-16T03:34:21.600Z,7.84
2023-05-16T03:36:51.744Z,7.81
2023-05-16T03:39:18.659Z,7.83
2023-05-16T03:41:45.480Z,7.92
2023-05-16T03:44:12.336Z,7.81
2023-05-16T03:46:39.262Z,7.88
2023-05-16T03:49:06.528Z,7.86
2023-05-16T03:51:33.540Z,7.82
2023-05-16T03:54:00.610Z,7.91
2023-05-16T03:56:27.572Z,7.94
2023-05-16T03:58:54.619Z,8.00
2023-05-16T04:01:21.532Z,8.00
2023-05-16T04:03:48.393Z,7.94
2023-05-16T04:06:15.214Z,8.05
2023-05-16T04:08:45.137Z,8.07
2023-05-16T04:11:12.350Z,8.14
2023-05-16T04:13:39.313Z,8.20
2023-05-16T04:16:07.483Z,8.16
2023-05-16T04:18:34.460Z,8.21
2023-05-16T04:21:01.421Z,8.34
2023-05-16T04:23:28.396Z,8.38
2023-05-16T04:25:57.113Z,8.44
2023-05-16T04:28:23.971Z,8.51
2023-05-16T04:30:51.514Z,8.58
2023-05-16T04:33:18.965Z,8.63
2023-05-16T04:35:45.980Z,8.71
2023-05-16T04:38:12.806Z,8.79
2023-05-16T04:40:41.937Z,8.87
2023-05-16T04:43:08.907Z,8.93
2023-05-16T04:45:37.608Z,8.98
2023-05-16T04:48:05.298Z,9.14
2023-05-16T04:50:32.259Z,9.26
2023-05-16T04:52:59.226Z,9.41
2023-05-16T04:55:26.317Z,9.46
2023-05-16T04:57:53.722Z,9.69
2023-05-16T05:00:21.116Z,9.70
2023-05-16T05:02:48.048Z,9.82
2023-05-16T05:05:15.057Z,9.98
2023-05-16T05:07:41.993Z,9.98
2023-05-16T05:10:09.571Z,10.06
2023-05-16T05:12:37.122Z,10.04
2023-05-16T05:15:05.702Z,10.10
2023-05-16T05:17:33.368Z,10.10
2023-05-16T05:20:02.661Z,10.21
2023-05-16T05:22:30.183Z,10.27
2023-05-16T05:24:57.009Z,10.41
2023-05-16T05:27:23.834Z,10.53
2023-05-16T05:29:50.640Z,10.55
2023-05-16T05:32:17.465Z,10.66
2023-05-16T05:34:44.318Z,10.61
2023-05-16T05:37:11.239Z,10.70
2023-05-16T05:39:38.126Z,10.72
2023-05-16T05:42:05.071Z,10.71
2023-05-16T05:44:31.906Z,10.80
2023-05-16T05:46:59.134Z,10.92
2023-05-16T05:49:27.327Z,10.93
2023-05-16T05:51:54.677Z,10.94
2023-05-16T05:54:21.866Z,10.93
2023-05-16T05:56:48.763Z,11.04
2023-05-16T05:59:15.884Z,11.10
2023-05-16T06:01:44.629Z,11.11
2023-05-16T06:04:11.802Z,11.09
2023-05-16T06:06:40.279Z,11.28
2023-05-16T06:09:07.437Z,11.23
2023-05-16T06:11:34.403Z,11.28
2023-05-16T06:14:01.268Z,11.49
2023-05-16T06:16:28.332Z,11.54
2023-05-16T06:18:55.224Z,11.52
2023-05-16T06:21:22.154Z,11.61
2023-05-16T06:23:49.030Z,11.66
2023-05-16T06:26:16.044Z,11.68
2023-05-16T06:28:42.933Z,11.74
2023-05-16T06:31:10.560Z,11.81
2023-05-16T06:33:37.419Z,11.80
2023-05-16T06:36:04.897Z,11.82
2023-05-16T06:38:31.745Z,11.94
2023-05-16T06:40:58.580Z,11.93
2023-05-16T06:43:25.693Z,12.03
2023-05-16T06:45:52.599Z,12.00
2023-05-16T06:48:19.893Z,12.02
2023-05-16T06:50:52.103Z,12.20
2023-05-16T06:53:19.516Z,12.18
2023-05-16T06:55:47.332Z,12.20
2023-05-16T06:58:14.303Z,12.21
2023-05-16T07:00:41.956Z,12.11
2023-05-16T07:03:08.999Z,12.01
2023-05-16T07:05:35.976Z,12.03
2023-05-16T07:08:04.151Z,12.22
2023-05-16T07:10:31.953Z,12.09
2023-05-16T07:12:58.873Z,11.95
2023-05-16T07:15:26.053Z,12.09
2023-05-16T07:17:53.043Z,11.99
2023-05-16T07:20:20.052Z,11.92
2023-05-16T07:22:46.917Z,12.03
2023-05-16T07:25:15.232Z,11.87
2023-05-16T07:27:44.902Z,11.63
2023-05-16T07:30:13.624Z,11.69
2023-05-16T07:32:41.892Z,11.60
2023-05-16T07:35:09.830Z,11.67
2023-05-16T07:37:36.966Z,11.66
2023-05-16T07:40:04.224Z,11.62
2023-05-16T07:42:31.998Z,11.59
2023-05-16T07:44:58.865Z,11.43
2023-05-16T07:47:26.080Z,11.64
2023-05-16T07:49:53.071Z,11.61
2023-05-16T07:52:20.438Z,11.55
2023-05-16T07:54:47.902Z,11.51
2023-05-16T07:57:15.973Z,11.54
2023-05-16T07:59:44.016Z,11.60
2023-05-16T08:02:11.743Z,11.63
2023-05-16T08:04:38.898Z,11.64
2023-05-16T08:07:06.258Z,11.57
2023-05-16T08:09:33.539Z,11.62
2023-05-16T08:12:04.130Z,11.50
2023-05-16T08:14:33.113Z,11.57
2023-05-16T08:17:00.714Z,11.66
2023-05-16T08:19:27.911Z,11.63
2023-05-16T08:21:55.265Z,11.69
2023-05-16T08:24:22.223Z,11.60
2023-05-16T08:26:49.161Z,11.60
2023-05-16T08:29:16.142Z,11.58
2023-05-16T08:31:43.293Z,11.68
2023-05-16T08:34:10.677Z,11.75
2023-05-16T08:36:38.340Z,11.75
2023-05-16T08:39:05.550Z,11.67
2023-05-16T08:41:32.520Z,11.65
2023-05-16T08:43:59.622Z,11.72
2023-05-16T08:46:29.992Z,11.85
2023-05-16T08:49:01.003Z,11.69
2023-05-16T08:51:34.717Z,11.63
2023-05-16T08:54:07.227Z,11.75
2023-05-16T08:56:35.388Z,11.72
2023-05-16T08:59:03.465Z,11.63
2023-05-16T09:01:32.690Z,11.62
2023-05-16T09:04:01.356Z,11.50
2023-05-16T09:06:28.464Z,11.54
2023-05-16T09:08:55.709Z,11.28
2023-05-16T09:11:23.130Z,11.05
2023-05-16T09:13:50.164Z,11.06
2023-05-16T09:16:20.091Z,11.04
2023-05-16T09:18:58.734Z,10.93
2023-05-16T09:21:36.120Z,10.85
2023-05-16T09:24:08.328Z,10.83
2023-05-16T09:26:38.317Z,10.79
2023-05-16T09:29:12.913Z,10.83
2023-05-16T09:31:40.665Z,10.86
2023-05-16T09:34:14.172Z,10.87
2023-05-16T09:36:44.034Z,10.82
2023-05-16T09:39:12.424Z,10.92
2023-05-16T09:41:39.668Z,10.86
2023-05-16T09:44:07.268Z,10.86
2023-05-16T09:46:38.612Z,10.97
2023-05-16T09:49:05.655Z,10.98
2023-05-16T09:51:33.142Z,10.95
2023-05-16T09:54:00.829Z,10.81
2023-05-16T09:56:27.796Z,10.85
2023-05-16T09:58:54.666Z,10.88
2023-05-16T10:01:21.646Z,10.85
2023-05-16T10:03:48.679Z,10.74
2023-05-16T10:06:16.822Z,10.71
2023-05-16T10:08:44.081Z,10.75
2023-05-16T10:11:11.864Z,10.77
2023-05-16T10:13:39.670Z,10.89
2023-05-16T10:16:12.056Z,10.83
2023-05-16T10:18:40.713Z,10.94
2023-05-16T10:21:15.648Z,11.04
2023-05-16T10:23:43.903Z,11.11
2023-05-16T10:26:14.346Z,11.12
2023-05-16T10:28:41.794Z,11.27
2023-05-16T10:31:10.387Z,11.35
2023-05-16T10:33:37.427Z,11.55
2023-05-16T10:36:05.761Z,11.68
2023-05-16T10:38:33.832Z,11.67
2023-05-16T10:41:01.012Z,11.62
2023-05-16T10:43:31.105Z,11.73
2023-05-16T10:46:05.395Z,11.88
2023-05-16T10:48:39.116Z,11.77
2023-05-16T10:51:36.902Z,11.69
2023-05-16T10:54:10.860Z,11.75
2023-05-16T10:56:37.979Z,11.80
2023-05-16T10:59:05.217Z,11.70
2023-05-16T11:01:35.864Z,11.75
2023-05-16T11:04:07.330Z,11.81
2023-05-16T11:06:35.382Z,12.03
2023-05-16T11:09:11.147Z,12.10
2023-05-16T11:11:55.685Z,12.17
2023-05-16T11:14:33.053Z,12.30
2023-05-16T11:17:12.773Z,12.28
2023-05-16T11:19:46.396Z,12.44
2023-05-16T11:22:21.066Z,12.54
2023-05-16T11:25:10.829Z,12.71
2023-05-16T11:27:48.166Z,12.72
2023-05-16T11:30:22.098Z,12.73
2023-05-16T11:32:50.977Z,13.00
2023-05-16T11:35:18.784Z,13.11
2023-05-16T11:37:47.257Z,13.01
2023-05-16T11:40:15.000Z,13.18
2023-05-16T11:42:44.287Z,13.41
2023-05-16T11:45:21.696Z,13.32
2023-05-16T11:47:49.828Z,13.45
2023-05-16T11:50:19.800Z,13.56
2023-05-16T11:52:54.081Z,13.42
2023-05-16T11:55:40.161Z,13.41
2023-05-16T11:58:08.579Z,13.30
2023-05-16T12:00:36.592Z,13.19
2023-05-16T12:03:06.077Z,13.11
2023-05-16T12:05:35.133Z,13.14
2023-05-16T12:08:05.138Z,13.29
2023-05-16T12:10:34.991Z,13.40
2023-05-16T12:13:03.635Z,13.64
2023-05-16T12:15:31.229Z,13.64
2023-05-16T12:17:58.507Z,13.66
2023-05-16T12:20:26.885Z,13.67
2023-05-16T12:22:53.988Z,13.73
2023-05-16T12:25:33.103Z,13.81
2023-05-16T12:28:03.227Z,13.92
2023-05-16T12:30:32.808Z,13.97
2023-05-16T12:33:10.042Z,13.85
2023-05-16T12:35:40.326Z,13.84
2023-05-16T12:38:13.223Z,13.96
2023-05-16T12:40:42.593Z,14.00
2023-05-16T12:43:23.326Z,13.97
2023-05-16T12:45:53.074Z,13.99
2023-05-16T12:48:20.311Z,13.98
2023-05-16T12:50:47.546Z,13.95
2023-05-16T12:53:16.262Z,13.85
2023-05-16T12:55:44.478Z,13.82
2023-05-16T12:58:12.173Z,13.80
2023-05-16T13:00:39.484Z,13.73
2023-05-16T13:03:07.800Z,13.37
2023-05-16T13:05:36.563Z,13.17
2023-05-16T13:08:04.382Z,13.11
2023-05-16T13:10:31.342Z,13.00
2023-05-16T13:13:00.854Z,12.84
2023-05-16T13:15:28.450Z,12.83
2023-05-16T13:17:55.850Z,13.07
2023-05-16T13:20:22.975Z,13.14
2023-05-16T13:22:49.891Z,13.13
2023-05-16T13:25:16.810Z,12.91
2023-05-16T13:27:44.192Z,12.89
2023-05-16T13:30:11.909Z,13.04
2023-05-16T13:32:38.877Z,13.07
2023-05-16T13:35:06.357Z,12.92
2023-05-16T13:37:33.407Z,12.65
2023-05-16T13:40:00.423Z,12.49
2023-05-16T13:42:27.610Z,12.59
2023-05-16T13:44:54.517Z,12.32
2023-05-16T13:47:21.574Z,12.41
2023-05-16T13:49:48.720Z,12.18
2023-05-16T13:52:15.667Z,12.12
2023-05-16T13:54:42.645Z,12.24
2023-05-16T13:57:09.719Z,12.05
2023-05-16T14:02:07.272Z,11.97
2023-05-16T14:04:34.200Z,11.98
2023-05-16T14:07:01.239Z,12.06
2023-05-16T14:09:28.151Z,12.07
2023-05-16T14:11:55.000Z,11.80
2023-05-16T14:14:21.842Z,11.74
2023-05-16T14:16:48.839Z,11.69
2023-05-16T14:19:19.186Z,11.54
2023-05-16T14:21:46.656Z,11.46
2023-05-16T14:24:13.516Z,11.60
2023-05-16T14:26:41.483Z,11.55
2023-05-16T14:29:08.439Z,11.55
2023-05-16T14:31:36.691Z,11.61
2023-05-16T14:34:04.380Z,11.50
2023-05-16T14:36:32.059Z,11.50
2023-05-16T14:38:59.112Z,11.52
2023-05-16T14:41:26.822Z,11.50
2023-05-16T14:43:53.682Z,11.51
2023-05-16T14:46:20.755Z,11.51
2023-05-16T14:48:47.690Z,11.42
2023-05-16T14:51:15.451Z,11.58
2023-05-16T14:53:43.330Z,11.65
2023-05-16T14:56:11.059Z,11.70
2023-05-16T14:58:37.918Z,11.77
2023-05-16T15:01:05.875Z,11.88
2023-05-16T15:03:43.261Z,11.95
2023-05-16T15:06:17.935Z,11.92
2023-05-16T15:08:44.811Z,12.03
2023-05-16T15:11:12.016Z,11.93
2023-05-16T15:13:39.340Z,11.94
2023-05-16T15:16:06.517Z,11.66
2023-05-16T15:18:33.982Z,11.55
2023-05-16T15:21:00.964Z,11.28
2023-05-16T15:23:27.822Z,11.07
2023-05-16T15:25:55.002Z,10.93
2023-05-16T15:28:22.768Z,10.91
2023-05-16T15:30:51.487Z,10.85
2023-05-16T15:33:18.447Z,10.75
2023-05-16T15:35:45.619Z,10.77
2023-05-16T15:38:12.515Z,10.79
2023-05-16T15:40:39.706Z,10.85
2023-05-16T15:43:06.709Z,10.71
2023-05-16T15:45:37.319Z,10.48
2023-05-16T15:48:08.251Z,10.52
2023-05-16T15:50:35.124Z,10.55
2023-05-16T15:53:02.518Z,10.38
2023-05-16T15:55:33.109Z,10.47
2023-05-16T15:58:00.419Z,10.37
2023-05-16T16:00:27.587Z,10.48
2023-05-16T16:02:54.888Z,10.55
2023-05-16T16:05:23.145Z,10.41
2023-05-16T16:07:52.907Z,10.48
2023-05-16T16:10:21.896Z,10.37
2023-05-16T16:13:03.774Z,10.28
2023-05-16T16:15:34.234Z,10.24
2023-05-16T16:18:02.253Z,10.42
2023-05-16T16:20:29.311Z,10.26
2023-05-16T16:22:56.251Z,10.33
2023-05-16T16:25:23.180Z,10.37
2023-05-16T16:27:50.312Z,10.36
2023-05-16T16:30:17.614Z,10.48
2023-05-16T16:32:44.615Z,10.39
2023-05-16T16:35:11.912Z,10.46
2023-05-16T16:37:39.071Z,10.42
2023-05-16T16:40:09.381Z,10.37
2023-05-16T16:42:38.312Z,10.39
2023-05-16T16:45:06.579Z,10.38
2023-05-16T16:47:33.781Z,10.30
2023-05-16T16:50:01.525Z,10.26
2023-05-16T16:52:29.273Z,10.44
2023-05-16T16:54:56.252Z,10.31
2023-05-16T16:57:23.140Z,10.36
2023-05-16T16:59:50.137Z,10.30
2023-05-16T17:02:17.068Z,10.15
2023-05-16T17:04:43.980Z,10.04
2023-05-16T17:07:10.843Z,10.10
2023-05-16T17:09:42.282Z,10.02
2023-05-16T17:12:18.888Z,10.01
2023-05-16T17:14:48.108Z,10.09
2023-05-16T17:17:16.856Z,10.07
2023-05-16T17:19:47.063Z,10.07
2023-05-16T17:22:14.837Z,10.01
2023-05-16T17:24:41.740Z,10.05
2023-05-16T17:27:08.959Z,9.95
2023-05-16T17:29:35.945Z,9.96
2023-05-16T17:32:02.847Z,10.09
2023-05-16T17:34:29.804Z,10.11
2023-05-16T17:36:56.678Z,10.14
2023-05-16T17:39:23.632Z,10.00
2023-05-16T17:41:50.559Z,9.99
2023-05-16T17:44:17.604Z,9.78
2023-05-16T17:46:44.566Z,9.80
2023-05-16T17:49:11.830Z,9.75
2023-05-16T17:51:48.182Z,10.00
2023-05-16T17:54:17.111Z,9.99
2023-05-16T17:56:47.425Z,10.01
2023-05-16T17:59:15.331Z,10.08
2023-05-16T18:01:43.632Z,10.00
2023-05-16T18:04:10.915Z,9.96
2023-05-16T18:06:38.954Z,9.90
2023-05-16T18:09:09.778Z,9.92
2023-05-16T18:11:40.589Z,9.84
2023-05-16T18:14:13.042Z,9.84
2023-05-16T18:16:40.254Z,9.79
2023-05-16T18:19:08.938Z,9.80
2023-05-16T18:21:36.784Z,9.85
2023-05-16T18:24:04.035Z,9.79
2023-05-16T18:26:31.514Z,9.78
2023-05-16T18:28:58.450Z,9.76
2023-05-16T18:31:25.624Z,9.66
2023-05-16T18:33:52.537Z,9.82
2023-05-16T18:36:19.405Z,9.73
2023-05-16T18:38:46.453Z,9.83
2023-05-16T18:41:13.494Z,9.76
2023-05-16T18:43:40.499Z,9.84
2023-05-16T18:46:07.393Z,9.83
2023-05-16T18:48:36.027Z,10.02
2023-05-16T18:51:04.843Z,9.86
2023-05-16T18:53:42.235Z,9.87
2023-05-16T18:56:10.306Z,9.98
2023-05-16T18:58:45.451Z,9.83
2023-05-16T19:01:13.635Z,9.83
2023-05-16T19:03:44.284Z,9.94
2023-05-16T19:06:12.589Z,9.90
2023-05-16T19:08:47.667Z,9.83
2023-05-16T19:11:16.348Z,9.84
2023-05-16T19:13:43.652Z,9.78
2023-05-16T19:16:11.260Z,9.86
2023-05-16T19:18:38.494Z,9.85
2023-05-16T19:21:07.816Z,9.82
2023-05-16T19:23:34.728Z,9.89
2023-05-16T19:26:01.733Z,9.80
2023-05-16T19:28:28.712Z,9.83
2023-05-16T19:30:55.607Z,9.82
2023-05-16T19:33:22.566Z,9.83
2023-05-16T19:35:51.644Z,9.72
2023-05-16T19:38:20.040Z,9.70
2023-05-16T19:40:49.880Z,9.71
2023-05-16T19:43:21.644Z,9.81
2023-05-16T19:45:48.842Z,9.71
2023-05-16T19:48:25.367Z,9.57
2023-05-16T19:51:07.605Z,9.62
2023-05-16T19:53:37.010Z,9.48
2023-05-16T19:56:05.977Z,9.40
2023-05-16T19:58:45.577Z,9.41
2023-05-16T20:01:12.450Z,9.43
2023-05-16T20:03:39.430Z,9.41
2023-05-16T20:06:06.775Z,9.37
2023-05-16T20:08:33.649Z,9.39
2023-05-16T20:11:00.545Z,9.35
2023-05-16T20:13:27.477Z,9.20
2023-05-16T20:15:54.400Z,9.19
2023-05-16T20:18:21.315Z,9.11
2023-05-16T20:20:48.262Z,9.15
2023-05-16T20:23:15.123Z,9.06
2023-05-16T20:25:41.982Z,9.08
2023-05-16T20:28:08.893Z,8.98
2023-05-16T20:30:35.898Z,8.89
2023-05-16T20:33:02.831Z,8.88
2023-05-16T20:35:29.871Z,8.90
2023-05-16T20:37:56.814Z,8.84
2023-05-16T20:40:23.683Z,8.82
2023-05-16T20:42:50.576Z,8.84
2023-05-16T20:45:17.487Z,8.79
2023-05-16T20:47:44.440Z,8.79
2023-05-16T20:50:11.489Z,8.70
2023-05-16T20:52:38.372Z,8.67
2023-05-16T20:55:05.938Z,8.58
2023-05-16T20:57:32.807Z,8.58
2023-05-16T20:59:59.708Z,8.54
2023-05-16T21:02:26.570Z,8.53
2023-05-16T21:04:53.496Z,8.44
2023-05-16T21:07:20.455Z,8.47
2023-05-16T21:09:48.497Z,8.45
2023-05-16T21:12:15.370Z,8.34
2023-05-16T21:14:44.272Z,8.31
2023-05-16T21:17:11.276Z,8.30
2023-05-16T21:19:38.960Z,8.31
2023-05-16T21:22:06.143Z,8.23
2023-05-16T21:24:37.578Z,8.22
2023-05-16T21:27:05.337Z,8.29
2023-05-16T21:29:32.210Z,8.24
2023-05-16T21:31:59.264Z,8.21
2023-05-16T21:34:26.267Z,8.20
2023-05-16T21:36:54.038Z,8.12
2023-05-16T21:39:21.007Z,8.03
2023-05-16T21:41:47.934Z,8.01
2023-05-16T21:44:17.387Z,8.00
2023-05-16T21:46:47.108Z,7.91
2023-05-16T21:49:14.355Z,7.88
2023-05-16T21:51:41.317Z,7.85
2023-05-16T21:54:08.261Z,7.85
2023-05-16T21:56:35.164Z,7.81
2023-05-16T21:59:02.093Z,7.83
2023-05-16T22:01:29.602Z,7.77
2023-05-16T22:03:57.872Z,7.74
2023-05-16T22:06:25.634Z,7.75
2023-05-16T22:08:53.459Z,7.68
2023-05-16T22:11:20.484Z,7.69
2023-05-16T22:13:47.408Z,7.63
2023-05-16T22:16:14.344Z,7.61
2023-05-16T22:18:41.562Z,7.50
2023-05-16T22:21:08.520Z,7.45
2023-05-16T22:23:35.627Z,7.43
2023-05-16T22:26:02.572Z,7.33
2023-05-16T22:28:29.502Z,7.30
2023-05-16T22:30:56.403Z,7.26
2023-05-16T22:33:23.759Z,7.19
2023-05-16T22:35:50.993Z,7.28
2023-05-16T22:38:17.920Z,7.17
2023-05-16T22:40:44.893Z,7.19
2023-05-16T22:43:11.931Z,7.17
2023-05-16T22:45:38.855Z,7.20
2023-05-16T22:48:06.450Z,7.11
2023-05-16T22:50:33.590Z,7.01
2023-05-16T22:53:00.633Z,7.01
2023-05-16T22:55:27.778Z,7.06
2023-05-16T22:57:57.347Z,6.99
2023-05-16T23:00:24.737Z,6.97
2023-05-16T23:02:51.977Z,6.89
2023-05-16T23:05:19.017Z,6.80
2023-05-16T23:07:45.916Z,6.77
2023-05-16T23:10:14.392Z,6.69
2023-05-16T23:12:44.273Z,6.67
2023-05-16T23:15:11.735Z,6.62
2023-05-16T23:17:39.318Z,6.69
2023-05-16T23:20:07.337Z,6.60
2023-05-16T23:22:34.288Z,6.55
2023-05-16T23:25:01.227Z,6.54
2023-05-16T23:27:28.181Z,6.50
2023-05-16T23:29:55.096Z,6.50
2023-05-16T23:32:22.030Z,6.44
2023-05-16T23:34:48.958Z,6.36
2023-05-16T23:37:16.196Z,6.35
2023-05-16T23:39:43.313Z,6.30
2023-05-16T23:42:10.214Z,6.23
2023-05-16T23:44:37.126Z,6.24
2023-05-16T23:47:04.233Z,6.17
2023-05-16T23:49:31.125Z,6.22
2023-05-16T23:51:58.428Z,6.33
2023-05-16T23:54:28.200Z,6.29
2023-05-16T23:56:56.197Z,6.33
2023-05-16T23:59:23.122Z,6.37
